createdAt,value
2019-03-31T00:00:06.509Z,6.68
2019-03-31T00:02:34.516Z,6.49
2019-03-31T00:05:02.572Z,6.64
2019-03-31T00:07:30.618Z,6.56
2019-03-31T00:09:58.532Z,6.57
2019-03-31T00:12:26.536Z,6.53
2019-03-31T00:14:54.542Z,6.53
2019-03-31T00:17:22.521Z,6.43
2019-03-31T00:19:50.513Z,6.49
2019-03-31T00:22:18.499Z,6.72
2019-03-31T00:24:46.496Z,6.77
2019-03-31T00:27:14.531Z,6.66
2019-03-31T00:29:42.612Z,6.52
2019-03-31T00:32:10.599Z,6.71
2019-03-31T00:34:38.519Z,6.51
2019-03-31T00:37:07.829Z,6.29
2019-03-31T00:39:36.129Z,6.06
2019-03-31T00:42:04.337Z,6.08
2019-03-31T00:44:32.367Z,6.20
2019-03-31T00:47:02.190Z,6.15
2019-03-31T00:49:30.536Z,6.17
2019-03-31T00:51:58.698Z,6.34
2019-03-31T00:54:27.905Z,6.02
2019-03-31T00:56:56.130Z,6.01
2019-03-31T00:59:24.198Z,6.40
2019-03-31T01:01:59.104Z,6.18
2019-03-31T01:04:29.493Z,6.08
2019-03-31T01:06:57.814Z,6.13
2019-03-31T01:09:31.817Z,6.12
2019-03-31T01:12:01.119Z,5.94
2019-03-31T01:14:29.775Z,5.97
2019-03-31T01:16:58.691Z,6.12
2019-03-31T01:19:27.266Z,6.22
2019-03-31T01:21:55.381Z,6.23
2019-03-31T01:24:23.674Z,6.20
2019-03-31T01:26:51.852Z,6.18
2019-03-31T01:29:20.299Z,6.02
2019-03-31T01:31:50.773Z,6.13
2019-03-31T01:34:18.954Z,6.15
2019-03-31T01:36:47.010Z,6.06
2019-03-31T01:39:15.306Z,6.11
2019-03-31T01:41:43.285Z,6.15
2019-03-31T01:44:11.225Z,6.08
2019-03-31T01:46:39.216Z,6.16
2019-03-31T01:49:07.349Z,6.13
2019-03-31T01:51:35.455Z,6.03
2019-03-31T01:54:03.882Z,5.80
2019-03-31T01:56:31.891Z,5.68
2019-03-31T01:58:59.866Z,5.39
2019-03-31T02:01:28.009Z,5.50
2019-03-31T02:03:56.130Z,5.54
2019-03-31T02:06:24.181Z,5.77
2019-03-31T02:08:52.177Z,5.72
2019-03-31T02:11:20.161Z,5.66
2019-03-31T02:13:48.157Z,5.69
2019-03-31T02:16:16.190Z,5.62
2019-03-31T02:18:44.141Z,5.55
2019-03-31T02:21:12.129Z,5.58
2019-03-31T02:23:40.199Z,5.72
2019-03-31T02:26:08.297Z,5.32
2019-03-31T02:28:36.423Z,5.27
2019-03-31T02:31:04.517Z,5.46
2019-03-31T02:33:32.498Z,5.17
2019-03-31T02:36:00.407Z,5.19
2019-03-31T02:38:28.539Z,5.07
2019-03-31T02:40:56.770Z,5.14
2019-03-31T02:43:24.709Z,5.32
2019-03-31T02:45:52.701Z,5.42
2019-03-31T02:48:20.740Z,5.31
2019-03-31T02:50:50.176Z,5.31
2019-03-31T02:53:19.808Z,5.21
2019-03-31T02:55:48.140Z,5.35
2019-03-31T02:58:17.407Z,5.29
2019-03-31T03:00:45.529Z,5.22
2019-03-31T03:03:16.060Z,5.17
2019-03-31T03:05:44.664Z,5.16
2019-03-31T03:08:13.604Z,5.10
2019-03-31T03:10:43.309Z,4.82
2019-03-31T03:13:13.859Z,4.63
2019-03-31T03:16:13.122Z,4.48
2019-03-31T03:18:41.350Z,4.28
2019-03-31T03:21:09.310Z,4.40
2019-03-31T03:23:37.289Z,4.27
2019-03-31T03:26:05.992Z,4.26
2019-03-31T03:28:34.550Z,4.38
2019-03-31T03:31:02.978Z,4.54
2019-03-31T03:33:31.236Z,4.66
2019-03-31T03:35:59.166Z,4.66
2019-03-31T03:38:27.273Z,4.69
2019-03-31T03:40:55.216Z,4.64
2019-03-31T03:43:23.261Z,4.52
2019-03-31T03:45:51.289Z,4.26
2019-03-31T03:48:19.285Z,4.15
2019-03-31T03:50:47.313Z,4.36
2019-03-31T03:53:15.399Z,4.46
2019-03-31T03:55:43.401Z,4.29
2019-03-31T03:58:11.325Z,4.25
2019-03-31T04:00:39.329Z,4.24
2019-03-31T04:03:07.318Z,4.40
2019-03-31T04:05:35.266Z,3.96
2019-03-31T04:08:03.288Z,4.07
2019-03-31T04:11:14.488Z,4.14
2019-03-31T04:13:42.554Z,4.23
2019-03-31T04:16:10.518Z,4.10
2019-03-31T04:18:38.505Z,4.08
2019-03-31T04:21:06.617Z,4.23
2019-03-31T04:23:34.554Z,4.20
2019-03-31T04:26:02.582Z,3.98
2019-03-31T04:28:30.667Z,4.05
2019-03-31T04:30:58.599Z,3.93
2019-03-31T04:33:26.770Z,4.16
2019-03-31T04:35:54.802Z,4.14
2019-03-31T04:38:22.738Z,4.13
2019-03-31T04:40:50.729Z,4.44
2019-03-31T04:43:18.727Z,4.34
2019-03-31T04:45:46.676Z,4.39
2019-03-31T04:48:14.708Z,4.53
2019-03-31T04:50:42.732Z,4.58
2019-03-31T04:53:10.736Z,4.55
2019-03-31T04:55:38.669Z,4.71
2019-03-31T04:58:06.730Z,4.84
2019-03-31T05:00:34.694Z,4.93
2019-03-31T05:03:02.822Z,5.21
2019-03-31T05:05:30.772Z,5.40
2019-03-31T05:07:58.757Z,5.38
2019-03-31T05:10:26.746Z,5.33
2019-03-31T05:12:54.782Z,5.49
2019-03-31T05:15:22.836Z,5.51
2019-03-31T05:17:50.876Z,5.50
2019-03-31T05:20:18.887Z,5.77
2019-03-31T05:22:46.929Z,5.78
2019-03-31T05:25:14.939Z,6.00
2019-03-31T05:27:42.959Z,5.92
2019-03-31T05:30:11.259Z,6.04
2019-03-31T05:32:39.205Z,6.13
2019-03-31T05:35:07.529Z,6.32
2019-03-31T05:37:49.976Z,6.05
2019-03-31T05:40:05.563Z,6.23
2019-03-31T05:42:33.541Z,6.36
2019-03-31T05:45:01.564Z,6.52
2019-03-31T05:47:29.578Z,6.25
2019-03-31T05:49:57.564Z,6.34
2019-03-31T05:52:25.600Z,6.45
2019-03-31T05:54:53.619Z,6.57
2019-03-31T05:57:21.669Z,6.72
2019-03-31T05:59:49.646Z,6.75
2019-03-31T06:02:17.618Z,6.96
2019-03-31T06:04:45.659Z,6.95
2019-03-31T06:07:13.663Z,6.80
2019-03-31T06:09:41.691Z,6.72
2019-03-31T06:12:09.623Z,6.74
2019-03-31T06:14:37.634Z,6.83
2019-03-31T06:17:05.744Z,6.98
2019-03-31T06:19:33.744Z,7.14
2019-03-31T06:22:01.958Z,7.39
2019-03-31T06:24:30.056Z,7.84
2019-03-31T06:26:58.116Z,8.28
2019-03-31T06:29:26.174Z,8.40
2019-03-31T06:31:54.198Z,8.57
2019-03-31T06:34:22.201Z,8.62
2019-03-31T06:36:50.211Z,8.83
2019-03-31T06:39:18.289Z,9.29
2019-03-31T06:41:46.752Z,9.57
2019-03-31T06:44:14.794Z,9.81
2019-03-31T06:46:43.249Z,10.08
2019-03-31T06:49:11.759Z,9.98
2019-03-31T06:51:39.699Z,10.04
2019-03-31T06:54:08.376Z,10.19
2019-03-31T06:56:36.601Z,10.10
2019-03-31T06:59:04.721Z,10.35
2019-03-31T07:01:32.950Z,10.59
2019-03-31T07:04:00.961Z,10.72
2019-03-31T07:06:28.999Z,11.12
2019-03-31T07:08:57.044Z,11.53
2019-03-31T07:11:25.047Z,11.89
2019-03-31T07:13:53.039Z,12.15
2019-03-31T07:16:21.027Z,12.42
2019-03-31T07:18:49.197Z,12.65
2019-03-31T07:21:17.162Z,12.74
2019-03-31T07:23:45.199Z,12.87
2019-03-31T07:26:13.287Z,13.05
2019-03-31T07:28:41.404Z,13.26
2019-03-31T07:31:09.596Z,13.05
2019-03-31T07:33:37.621Z,13.04
2019-03-31T07:36:05.657Z,13.22
2019-03-31T07:38:39.238Z,13.28
2019-03-31T07:41:12.553Z,13.33
2019-03-31T07:43:33.655Z,13.16
2019-03-31T07:46:01.648Z,13.61
2019-03-31T07:48:29.686Z,13.68
2019-03-31T07:50:57.642Z,13.47
2019-03-31T07:53:25.774Z,13.35
2019-03-31T07:55:53.853Z,13.41
2019-03-31T07:58:22.040Z,13.38
2019-03-31T08:00:50.049Z,13.14
2019-03-31T08:03:18.094Z,13.27
2019-03-31T08:05:46.106Z,13.23
2019-03-31T08:08:14.196Z,13.35
2019-03-31T08:10:43.609Z,13.74
2019-03-31T08:13:11.752Z,13.74
2019-03-31T08:15:39.776Z,13.76
2019-03-31T08:18:07.816Z,13.73
2019-03-31T08:20:35.846Z,13.46
2019-03-31T08:23:03.848Z,13.30
2019-03-31T08:25:31.853Z,13.39
2019-03-31T08:28:00.007Z,13.41
2019-03-31T08:30:28.264Z,13.56
2019-03-31T08:32:56.485Z,13.73
2019-03-31T08:35:24.552Z,14.03
2019-03-31T08:37:52.497Z,13.96
2019-03-31T08:40:20.729Z,14.11
2019-03-31T08:42:48.832Z,14.24
2019-03-31T08:45:17.127Z,14.23
2019-03-31T08:47:45.171Z,14.34
2019-03-31T08:50:14.020Z,14.27
2019-03-31T08:52:42.039Z,14.44
2019-03-31T08:55:11.464Z,14.41
2019-03-31T08:57:39.582Z,14.54
2019-03-31T09:00:13.535Z,14.57
2019-03-31T09:02:41.571Z,14.41
2019-03-31T09:05:10.123Z,14.53
2019-03-31T09:07:41.601Z,14.59
2019-03-31T09:10:09.691Z,14.44
2019-03-31T09:12:38.278Z,14.81
2019-03-31T09:15:09.412Z,14.77
2019-03-31T09:17:37.755Z,14.97
2019-03-31T09:20:06.795Z,15.01
2019-03-31T09:22:34.908Z,14.57
2019-03-31T09:25:03.153Z,14.52
2019-03-31T09:27:32.076Z,14.57
2019-03-31T09:30:00.522Z,14.55
2019-03-31T09:32:28.783Z,14.64
2019-03-31T09:34:56.946Z,14.76
2019-03-31T09:37:25.151Z,14.81
2019-03-31T09:39:53.249Z,14.77
2019-03-31T09:42:21.359Z,14.95
2019-03-31T09:44:49.504Z,15.20
2019-03-31T09:47:17.573Z,15.16
2019-03-31T09:49:45.641Z,15.42
2019-03-31T09:52:13.768Z,15.77
2019-03-31T09:54:41.788Z,16.14
2019-03-31T09:57:09.892Z,16.16
2019-03-31T09:59:37.871Z,15.95
2019-03-31T10:02:06.068Z,15.86
2019-03-31T10:04:34.129Z,16.09
2019-03-31T10:07:02.268Z,15.87
2019-03-31T10:09:30.714Z,15.76
2019-03-31T10:11:58.909Z,15.68
2019-03-31T10:14:27.079Z,16.07
2019-03-31T10:16:55.229Z,16.26
2019-03-31T10:19:23.426Z,16.14
2019-03-31T10:21:51.605Z,16.11
2019-03-31T10:24:19.572Z,16.05
2019-03-31T10:26:47.681Z,16.26
2019-03-31T10:29:15.824Z,16.66
2019-03-31T10:31:43.894Z,16.88
2019-03-31T10:34:12.079Z,16.88
2019-03-31T10:36:44.741Z,16.96
2019-03-31T10:39:10.602Z,16.63
2019-03-31T10:41:39.036Z,16.91
2019-03-31T10:44:07.257Z,17.02
2019-03-31T10:46:35.547Z,16.97
2019-03-31T10:49:03.796Z,17.06
2019-03-31T10:51:31.926Z,17.18
2019-03-31T10:54:00.190Z,17.21
2019-03-31T10:56:28.315Z,17.47
2019-03-31T10:58:57.192Z,17.63
2019-03-31T11:01:25.269Z,17.80
2019-03-31T11:03:53.239Z,17.97
2019-03-31T11:06:21.436Z,17.74
2019-03-31T11:08:49.864Z,17.70
2019-03-31T11:11:18.175Z,17.57
2019-03-31T11:13:46.215Z,17.25
2019-03-31T11:16:15.013Z,17.25
2019-03-31T11:18:43.104Z,17.31
2019-03-31T11:21:18.202Z,17.39
2019-03-31T11:23:46.484Z,17.22
2019-03-31T11:26:14.473Z,17.39
2019-03-31T11:28:42.706Z,17.73
2019-03-31T11:31:10.890Z,18.20
2019-03-31T11:33:38.878Z,18.52
2019-03-31T11:36:07.489Z,18.59
2019-03-31T11:38:37.219Z,19.03
2019-03-31T11:41:07.244Z,19.00
2019-03-31T11:43:35.368Z,19.20
2019-03-31T11:46:03.581Z,18.90
2019-03-31T11:48:32.565Z,18.65
2019-03-31T11:51:00.641Z,18.24
2019-03-31T11:53:28.680Z,18.17
2019-03-31T11:55:56.873Z,18.10
2019-03-31T11:58:25.068Z,18.24
2019-03-31T12:00:55.730Z,18.15
2019-03-31T12:03:23.855Z,18.42
2019-03-31T12:05:51.969Z,18.56
2019-03-31T12:08:20.038Z,18.37
2019-03-31T12:10:48.063Z,18.12
2019-03-31T12:13:16.046Z,17.96
2019-03-31T12:15:44.198Z,17.79
2019-03-31T12:18:12.381Z,17.80
2019-03-31T12:20:40.510Z,17.90
2019-03-31T12:23:08.555Z,17.82
2019-03-31T12:25:37.185Z,17.88
2019-03-31T12:28:05.365Z,17.81
2019-03-31T12:30:33.489Z,17.48
2019-03-31T12:33:01.462Z,17.67
2019-03-31T12:35:29.482Z,17.54
2019-03-31T12:37:57.603Z,17.60
2019-03-31T12:40:30.171Z,17.59
2019-03-31T12:42:58.358Z,17.54
2019-03-31T12:45:26.541Z,17.54
2019-03-31T12:47:54.552Z,17.43
2019-03-31T12:50:22.759Z,17.43
2019-03-31T12:52:51.272Z,17.55
2019-03-31T12:55:19.514Z,17.83
2019-03-31T12:57:47.629Z,17.75
2019-03-31T13:00:16.572Z,17.88
2019-03-31T13:02:45.805Z,17.88
2019-03-31T13:05:13.841Z,17.86
2019-03-31T13:07:55.450Z,18.00
2019-03-31T13:10:12.231Z,18.10
2019-03-31T13:12:40.272Z,17.91
2019-03-31T13:15:08.999Z,17.73
2019-03-31T13:17:37.279Z,17.82
2019-03-31T13:20:05.895Z,17.98
2019-03-31T13:22:33.969Z,18.28
2019-03-31T13:25:02.771Z,18.14
2019-03-31T13:27:31.001Z,18.19
2019-03-31T13:29:59.006Z,18.00
2019-03-31T13:32:27.149Z,17.77
2019-03-31T13:34:55.180Z,17.88
2019-03-31T13:37:23.193Z,17.90
2019-03-31T13:39:51.299Z,17.80
2019-03-31T13:42:19.261Z,17.89
2019-03-31T13:44:47.460Z,18.02
2019-03-31T13:47:15.551Z,17.87
2019-03-31T13:49:43.569Z,17.81
2019-03-31T13:52:11.701Z,17.80
2019-03-31T13:54:39.786Z,17.75
2019-03-31T13:57:08.832Z,17.72
2019-03-31T13:59:37.835Z,17.97
2019-03-31T14:02:06.362Z,17.87
2019-03-31T14:04:40.323Z,17.92
2019-03-31T14:07:04.652Z,17.95
2019-03-31T14:09:32.814Z,17.95
2019-03-31T14:12:01.634Z,18.02
2019-03-31T14:14:30.809Z,18.05
2019-03-31T14:16:58.830Z,18.06
2019-03-31T14:19:27.349Z,17.95
2019-03-31T14:21:55.475Z,17.87
2019-03-31T14:24:26.764Z,18.05
2019-03-31T14:26:53.539Z,18.05
2019-03-31T14:29:21.806Z,18.02
2019-03-31T14:31:51.994Z,17.90
2019-03-31T14:34:19.830Z,17.80
2019-03-31T14:36:47.954Z,17.71
2019-03-31T14:39:17.275Z,17.67
2019-03-31T14:41:45.471Z,17.59
2019-03-31T14:44:13.540Z,17.55
2019-03-31T14:46:41.748Z,17.37
2019-03-31T14:49:09.781Z,17.48
2019-03-31T14:51:37.811Z,17.47
2019-03-31T14:54:05.832Z,17.34
2019-03-31T14:56:33.870Z,17.40
2019-03-31T14:59:02.001Z,17.52
2019-03-31T15:01:30.108Z,17.39
2019-03-31T15:03:58.172Z,17.35
2019-03-31T15:06:26.286Z,17.16
2019-03-31T15:08:54.857Z,17.15
2019-03-31T15:11:23.008Z,17.14
2019-03-31T15:13:50.991Z,17.13
2019-03-31T15:16:19.140Z,17.14
2019-03-31T15:18:47.378Z,17.23
2019-03-31T15:21:15.426Z,17.13
2019-03-31T15:23:43.856Z,17.08
2019-03-31T15:26:11.904Z,17.16
2019-03-31T15:28:40.024Z,17.06
2019-03-31T15:31:08.305Z,16.98
2019-03-31T15:33:36.359Z,16.97
2019-03-31T15:36:04.532Z,16.91
2019-03-31T15:38:32.690Z,16.81
2019-03-31T15:41:00.670Z,16.74
2019-03-31T15:43:28.798Z,16.71
2019-03-31T15:45:56.969Z,16.67
2019-03-31T15:48:25.258Z,16.66
2019-03-31T15:50:53.432Z,16.64
2019-03-31T15:53:21.581Z,16.60
2019-03-31T15:55:49.821Z,16.53
2019-03-31T15:58:18.109Z,16.55
2019-03-31T16:00:46.180Z,16.45
2019-03-31T16:03:14.339Z,16.43
2019-03-31T16:05:42.493Z,16.38
2019-03-31T16:08:10.164Z,16.32
2019-03-31T16:10:37.731Z,16.29
2019-03-31T16:13:05.232Z,16.23
2019-03-31T16:15:33.037Z,16.09
2019-03-31T16:18:00.460Z,16.00
2019-03-31T16:20:27.952Z,15.92
2019-03-31T16:22:55.456Z,15.79
2019-03-31T16:25:31.886Z,15.72
2019-03-31T16:27:59.484Z,15.63
2019-03-31T16:30:27.571Z,15.57
2019-03-31T16:32:55.512Z,15.59
2019-03-31T16:35:23.192Z,15.51
2019-03-31T16:37:50.730Z,15.49
2019-03-31T16:40:18.237Z,15.39
2019-03-31T16:42:45.811Z,15.30
2019-03-31T16:45:13.753Z,15.26
2019-03-31T16:47:41.418Z,15.21
2019-03-31T16:50:10.020Z,15.17
2019-03-31T16:52:37.599Z,15.10
2019-03-31T16:55:05.618Z,15.07
2019-03-31T16:57:33.179Z,15.01
2019-03-31T17:00:00.765Z,14.96
2019-03-31T17:02:28.282Z,14.92
2019-03-31T17:04:55.804Z,14.86
2019-03-31T17:07:23.292Z,14.80
2019-03-31T17:09:56.261Z,14.76
2019-03-31T17:12:24.419Z,14.75
2019-03-31T17:14:52.295Z,14.71
2019-03-31T17:17:19.876Z,14.63
2019-03-31T17:19:47.347Z,14.60
2019-03-31T17:22:14.906Z,14.57
2019-03-31T17:24:42.702Z,14.59
2019-03-31T17:27:13.883Z,14.56
2019-03-31T17:29:40.064Z,14.52
2019-03-31T17:32:07.900Z,14.47
2019-03-31T17:34:35.960Z,14.43
2019-03-31T17:37:03.676Z,14.38
2019-03-31T17:39:31.211Z,14.40
2019-03-31T17:41:58.767Z,14.36
2019-03-31T17:44:26.235Z,14.29
2019-03-31T17:46:53.835Z,14.28
2019-03-31T17:49:21.279Z,14.26
2019-03-31T17:51:48.975Z,14.23
2019-03-31T17:54:16.537Z,14.21
2019-03-31T17:56:44.538Z,14.20
2019-03-31T17:59:11.922Z,14.16
2019-03-31T18:01:39.499Z,14.18
2019-03-31T18:04:07.046Z,14.08
2019-03-31T18:06:34.572Z,13.83
2019-03-31T18:09:04.151Z,13.78
2019-03-31T18:11:31.853Z,13.88
2019-03-31T18:13:59.498Z,14.01
2019-03-31T18:16:27.087Z,14.06
2019-03-31T18:18:54.633Z,14.01
2019-03-31T18:21:22.230Z,13.91
2019-03-31T18:23:49.858Z,13.95
2019-03-31T18:26:17.385Z,13.98
2019-03-31T18:28:44.828Z,14.03
2019-03-31T18:31:12.357Z,14.00
2019-03-31T18:33:40.747Z,14.03
2019-03-31T18:36:08.435Z,13.79
2019-03-31T18:38:35.934Z,13.67
2019-03-31T18:41:04.562Z,13.72
2019-03-31T18:43:32.078Z,13.77
2019-03-31T18:46:00.096Z,13.80
2019-03-31T18:48:27.579Z,13.75
2019-03-31T18:50:55.389Z,13.63
2019-03-31T18:53:35.965Z,13.72
2019-03-31T18:56:14.127Z,13.75
2019-03-31T18:58:58.015Z,13.63
2019-03-31T19:01:41.821Z,13.43
2019-03-31T19:04:35.209Z,13.41
2019-03-31T19:07:23.020Z,13.23
2019-03-31T19:09:59.693Z,13.21
2019-03-31T19:12:49.588Z,13.04
2019-03-31T19:15:42.805Z,12.87
2019-03-31T19:18:19.137Z,12.95
2019-03-31T19:21:10.476Z,12.79
2019-03-31T19:23:34.338Z,12.97
2019-03-31T19:26:22.811Z,12.67
2019-03-31T19:29:27.933Z,12.39
2019-03-31T19:32:14.060Z,12.12
2019-03-31T19:35:07.158Z,12.20
2019-03-31T19:38:05.966Z,12.03
2019-03-31T19:41:03.274Z,11.92
2019-03-31T19:43:39.195Z,11.81
2019-03-31T19:46:21.760Z,11.71
2019-03-31T19:49:11.604Z,11.64
2019-03-31T19:52:06.778Z,11.48
2019-03-31T19:54:44.252Z,11.58
2019-03-31T19:57:31.712Z,11.40
2019-03-31T20:00:30.692Z,11.36
2019-03-31T20:03:10.052Z,11.38
2019-03-31T20:05:55.624Z,11.27
2019-03-31T20:08:37.874Z,11.11
2019-03-31T20:11:33.853Z,10.96
2019-03-31T20:14:19.793Z,11.10
2019-03-31T20:17:13.148Z,11.10
2019-03-31T20:20:09.495Z,11.04
2019-03-31T20:22:48.788Z,10.97
2019-03-31T20:25:27.553Z,10.84
2019-03-31T20:28:23.801Z,10.78
2019-03-31T20:31:09.624Z,10.72
2019-03-31T20:33:52.568Z,10.69
2019-03-31T20:36:39.698Z,10.70
2019-03-31T20:39:56.101Z,10.73
2019-03-31T20:42:18.387Z,10.88
2019-03-31T20:44:45.862Z,10.94
2019-03-31T20:47:13.550Z,10.88
2019-03-31T20:49:41.021Z,10.80
2019-03-31T20:52:08.566Z,10.73
2019-03-31T20:54:36.266Z,10.85
2019-03-31T20:57:03.986Z,10.70
2019-03-31T20:59:31.574Z,10.70
2019-03-31T21:01:59.111Z,10.63
2019-03-31T21:04:26.766Z,10.68
2019-03-31T21:06:54.209Z,10.67
2019-03-31T21:09:21.736Z,10.43
2019-03-31T21:11:49.386Z,10.46
2019-03-31T21:14:17.167Z,10.49
2019-03-31T21:16:44.663Z,10.41
2019-03-31T21:19:12.223Z,10.21
2019-03-31T21:21:39.716Z,10.42
2019-03-31T21:24:07.240Z,10.48
2019-03-31T21:26:34.796Z,10.36
2019-03-31T21:29:02.326Z,10.52
2019-03-31T21:31:29.798Z,10.45
2019-03-31T21:33:57.273Z,10.47
2019-03-31T21:36:24.767Z,10.46
2019-03-31T21:38:52.217Z,10.37
2019-03-31T21:41:19.686Z,10.41
2019-03-31T21:43:47.158Z,10.31
2019-03-31T21:46:14.633Z,10.52
2019-03-31T21:48:42.205Z,10.42
2019-03-31T21:51:09.729Z,10.35
2019-03-31T21:53:37.311Z,10.20
2019-03-31T21:56:04.753Z,9.80
2019-03-31T21:58:32.351Z,9.83
2019-03-31T22:01:00.317Z,9.79
2019-03-31T22:03:27.814Z,9.95
2019-03-31T22:05:55.354Z,9.78
2019-03-31T22:08:22.962Z,9.83
2019-03-31T22:10:50.464Z,9.86
2019-03-31T22:13:18.088Z,9.85
2019-03-31T22:15:45.555Z,9.78
2019-03-31T22:18:13.225Z,9.83
2019-03-31T22:20:40.779Z,9.74
2019-03-31T22:23:08.218Z,9.74
2019-03-31T22:25:37.435Z,9.92
2019-03-31T22:28:04.886Z,9.98
2019-03-31T22:30:33.511Z,9.92
2019-03-31T22:33:01.153Z,9.75
2019-03-31T22:35:28.744Z,9.78
2019-03-31T22:37:56.485Z,9.64
2019-03-31T22:40:24.191Z,9.51
2019-03-31T22:42:51.666Z,9.59
2019-03-31T22:45:19.215Z,9.53
2019-03-31T22:47:46.668Z,9.47
2019-03-31T22:50:14.356Z,9.56
2019-03-31T22:52:42.003Z,9.62
2019-03-31T22:55:09.746Z,9.57
2019-03-31T22:57:37.177Z,9.72
2019-03-31T23:00:05.608Z,9.77
2019-03-31T23:02:33.163Z,9.77
2019-03-31T23:05:02.167Z,9.44
2019-03-31T23:07:29.748Z,9.24
2019-03-31T23:09:57.192Z,9.28
2019-03-31T23:12:24.598Z,8.90
2019-03-31T23:14:52.028Z,8.81
2019-03-31T23:17:19.819Z,8.78
2019-03-31T23:19:47.274Z,8.62
2019-03-31T23:22:14.689Z,8.36
2019-03-31T23:24:42.143Z,8.02
2019-03-31T23:27:09.594Z,7.71
2019-03-31T23:29:37.096Z,7.49
2019-03-31T23:32:04.525Z,7.36
2019-03-31T23:34:32.032Z,7.23
2019-03-31T23:36:59.409Z,7.18
2019-03-31T23:39:26.874Z,7.09
2019-03-31T23:41:54.385Z,7.19
2019-03-31T23:44:21.837Z,7.00
2019-03-31T23:46:49.283Z,7.30
2019-03-31T23:49:16.757Z,7.44
2019-03-31T23:51:44.246Z,7.68
2019-03-31T23:54:11.698Z,7.85
2019-03-31T23:56:39.218Z,7.75
2019-03-31T23:59:06.832Z,8.00
